sensor_id;sensor_type;location;lat;lon;timestamp;temperature;humidity
6627;DHT22;3349;49.830;8.748;2023-01-31T00:00:22;3.80;93.30
6627;DHT22;3349;49.830;8.748;2023-01-31T00:02:48;3.80;93.60
6627;DHT22;3349;49.830;8.748;2023-01-31T00:05:15;3.80;94.10
6627;DHT22;3349;49.830;8.748;2023-01-31T00:07:44;3.70;93.50
6627;DHT22;3349;49.830;8.748;2023-01-31T00:10:11;3.70;93.00
6627;DHT22;3349;49.830;8.748;2023-01-31T00:12:39;3.70;93.10
6627;DHT22;3349;49.830;8.748;2023-01-31T00:15:06;3.60;93.60
6627;DHT22;3349;49.830;8.748;2023-01-31T00:17:33;3.60;93.60
6627;DHT22;3349;49.830;8.748;2023-01-31T00:19:59;3.70;93.50
6627;DHT22;3349;49.830;8.748;2023-01-31T00:22:26;3.70;94.00
6627;DHT22;3349;49.830;8.748;2023-01-31T00:24:53;3.70;93.60
6627;DHT22;3349;49.830;8.748;2023-01-31T00:27:19;3.70;93.50
6627;DHT22;3349;49.830;8.748;2023-01-31T00:29:47;3.70;93.10
6627;DHT22;3349;49.830;8.748;2023-01-31T00:32:14;3.80;93.10
6627;DHT22;3349;49.830;8.748;2023-01-31T00:34:40;3.80;93.30
6627;DHT22;3349;49.830;8.748;2023-01-31T00:37:07;3.80;93.30
6627;DHT22;3349;49.830;8.748;2023-01-31T00:39:34;3.90;93.30
6627;DHT22;3349;49.830;8.748;2023-01-31T00:42:01;3.90;93.00
6627;DHT22;3349;49.830;8.748;2023-01-31T00:44:28;3.90;93.20
6627;DHT22;3349;49.830;8.748;2023-01-31T00:46:55;3.90;93.20
6627;DHT22;3349;49.830;8.748;2023-01-31T00:49:22;3.90;93.00
6627;DHT22;3349;49.830;8.748;2023-01-31T00:51:49;3.90;93.10
6627;DHT22;3349;49.830;8.748;2023-01-31T00:54:16;3.90;92.90
6627;DHT22;3349;49.830;8.748;2023-01-31T00:56:43;3.90;93.00
6627;DHT22;3349;49.830;8.748;2023-01-31T00:59:10;3.90;92.70
6627;DHT22;3349;49.830;8.748;2023-01-31T01:01:37;3.90;92.80
6627;DHT22;3349;49.830;8.748;2023-01-31T01:04:05;3.90;92.80
6627;DHT22;3349;49.830;8.748;2023-01-31T01:06:32;3.90;92.70
6627;DHT22;3349;49.830;8.748;2023-01-31T01:08:59;3.90;92.60
6627;DHT22;3349;49.830;8.748;2023-01-31T01:11:27;3.90;93.10
6627;DHT22;3349;49.830;8.748;2023-01-31T01:13:55;3.90;93.50
6627;DHT22;3349;49.830;8.748;2023-01-31T01:16:24;3.80;93.30
6627;DHT22;3349;49.830;8.748;2023-01-31T01:18:52;3.80;93.40
6627;DHT22;3349;49.830;8.748;2023-01-31T01:21:22;3.80;93.50
6627;DHT22;3349;49.830;8.748;2023-01-31T01:23:49;3.80;93.80
6627;DHT22;3349;49.830;8.748;2023-01-31T01:26:17;3.80;93.70
6627;DHT22;3349;49.830;8.748;2023-01-31T01:28:45;3.80;93.70
6627;DHT22;3349;49.830;8.748;2023-01-31T01:31:14;3.80;94.10
6627;DHT22;3349;49.830;8.748;2023-01-31T01:33:42;3.80;94.00
6627;DHT22;3349;49.830;8.748;2023-01-31T01:36:10;3.80;94.10
6627;DHT22;3349;49.830;8.748;2023-01-31T01:38:39;3.80;94.10
6627;DHT22;3349;49.830;8.748;2023-01-31T01:41:06;3.80;94.10
6627;DHT22;3349;49.830;8.748;2023-01-31T01:43:44;3.70;94.00
6627;DHT22;3349;49.830;8.748;2023-01-31T01:46:18;3.80;93.80
6627;DHT22;3349;49.830;8.748;2023-01-31T01:48:50;3.80;94.10
6627;DHT22;3349;49.830;8.748;2023-01-31T01:51:19;3.70;94.00
6627;DHT22;3349;49.830;8.748;2023-01-31T01:53:51;3.70;94.00
6627;DHT22;3349;49.830;8.748;2023-01-31T01:56:22;3.70;94.20
6627;DHT22;3349;49.830;8.748;2023-01-31T01:58:55;3.70;93.80
6627;DHT22;3349;49.830;8.748;2023-01-31T02:01:24;3.70;93.60
6627;DHT22;3349;49.830;8.748;2023-01-31T02:03:52;3.70;93.20
6627;DHT22;3349;49.830;8.748;2023-01-31T02:06:20;3.70;93.50
6627;DHT22;3349;49.830;8.748;2023-01-31T02:08:48;3.70;93.20
6627;DHT22;3349;49.830;8.748;2023-01-31T02:11:20;3.70;93.10
6627;DHT22;3349;49.830;8.748;2023-01-31T02:13:49;3.60;93.40
6627;DHT22;3349;49.830;8.748;2023-01-31T02:16:16;3.60;93.30
6627;DHT22;3349;49.830;8.748;2023-01-31T02:18:44;3.60;93.60
6627;DHT22;3349;49.830;8.748;2023-01-31T02:24:40;3.50;93.90
6627;DHT22;3349;49.830;8.748;2023-01-31T02:27:28;3.50;93.60
6627;DHT22;3349;49.830;8.748;2023-01-31T02:30:28;3.50;93.30
6627;DHT22;3349;49.830;8.748;2023-01-31T02:33:08;3.60;93.20
6627;DHT22;3349;49.830;8.748;2023-01-31T02:35:48;3.60;92.20
6627;DHT22;3349;49.830;8.748;2023-01-31T02:38:30;3.60;92.20
6627;DHT22;3349;49.830;8.748;2023-01-31T02:41:05;3.60;92.10
6627;DHT22;3349;49.830;8.748;2023-01-31T02:43:38;3.60;92.20
6627;DHT22;3349;49.830;8.748;2023-01-31T02:46:23;3.60;92.10
6627;DHT22;3349;49.830;8.748;2023-01-31T02:48:56;3.50;91.80
6627;DHT22;3349;49.830;8.748;2023-01-31T02:51:26;3.50;91.80
6627;DHT22;3349;49.830;8.748;2023-01-31T02:54:00;3.60;92.00
6627;DHT22;3349;49.830;8.748;2023-01-31T02:56:31;3.50;91.50
6627;DHT22;3349;49.830;8.748;2023-01-31T02:59:01;3.60;91.20
6627;DHT22;3349;49.830;8.748;2023-01-31T03:01:31;3.60;90.90
6627;DHT22;3349;49.830;8.748;2023-01-31T03:04:04;3.60;90.50
6627;DHT22;3349;49.830;8.748;2023-01-31T03:06:51;3.50;90.10
6627;DHT22;3349;49.830;8.748;2023-01-31T03:09:31;3.50;89.80
6627;DHT22;3349;49.830;8.748;2023-01-31T03:12:12;3.50;89.40
6627;DHT22;3349;49.830;8.748;2023-01-31T03:14:47;3.50;88.90
6627;DHT22;3349;49.830;8.748;2023-01-31T03:17:24;3.50;88.40
6627;DHT22;3349;49.830;8.748;2023-01-31T03:20:05;3.50;88.00
6627;DHT22;3349;49.830;8.748;2023-01-31T03:22:35;3.50;88.30
6627;DHT22;3349;49.830;8.748;2023-01-31T03:25:05;3.50;87.20
6627;DHT22;3349;49.830;8.748;2023-01-31T03:27:33;3.50;87.40
6627;DHT22;3349;49.830;8.748;2023-01-31T03:30:04;3.40;86.20
6627;DHT22;3349;49.830;8.748;2023-01-31T03:32:35;3.40;86.20
6627;DHT22;3349;49.830;8.748;2023-01-31T03:35:04;3.30;87.20
6627;DHT22;3349;49.830;8.748;2023-01-31T03:37:36;3.20;88.40
6627;DHT22;3349;49.830;8.748;2023-01-31T03:40:04;3.20;89.20
6627;DHT22;3349;49.830;8.748;2023-01-31T03:42:39;3.10;89.50
6627;DHT22;3349;49.830;8.748;2023-01-31T03:45:11;3.00;90.10
6627;DHT22;3349;49.830;8.748;2023-01-31T03:47:41;3.00;90.10
6627;DHT22;3349;49.830;8.748;2023-01-31T03:50:15;2.90;90.50
6627;DHT22;3349;49.830;8.748;2023-01-31T03:52:49;2.90;90.90
6627;DHT22;3349;49.830;8.748;2023-01-31T03:55:20;2.90;90.70
6627;DHT22;3349;49.830;8.748;2023-01-31T03:57:51;2.80;90.80
6627;DHT22;3349;49.830;8.748;2023-01-31T04:00:22;2.80;90.90
6627;DHT22;3349;49.830;8.748;2023-01-31T04:02:54;2.70;91.30
6627;DHT22;3349;49.830;8.748;2023-01-31T04:05:25;2.80;91.50
6627;DHT22;3349;49.830;8.748;2023-01-31T04:07:56;2.80;91.30
6627;DHT22;3349;49.830;8.748;2023-01-31T04:10:22;2.80;91.60
6627;DHT22;3349;49.830;8.748;2023-01-31T04:12:51;2.80;91.70
6627;DHT22;3349;49.830;8.748;2023-01-31T04:15:18;2.70;91.70
6627;DHT22;3349;49.830;8.748;2023-01-31T04:17:45;2.80;91.80
6627;DHT22;3349;49.830;8.748;2023-01-31T04:20:12;2.80;91.50
6627;DHT22;3349;49.830;8.748;2023-01-31T04:22:40;2.80;91.10
6627;DHT22;3349;49.830;8.748;2023-01-31T04:25:07;2.80;91.00
6627;DHT22;3349;49.830;8.748;2023-01-31T04:27:34;2.70;91.20
6627;DHT22;3349;49.830;8.748;2023-01-31T04:30:01;2.70;91.50
6627;DHT22;3349;49.830;8.748;2023-01-31T04:32:28;2.70;90.80
6627;DHT22;3349;49.830;8.748;2023-01-31T04:34:54;2.60;91.00
6627;DHT22;3349;49.830;8.748;2023-01-31T04:37:21;2.60;91.30
6627;DHT22;3349;49.830;8.748;2023-01-31T04:39:49;2.60;91.20
6627;DHT22;3349;49.830;8.748;2023-01-31T04:42:16;2.60;91.40
6627;DHT22;3349;49.830;8.748;2023-01-31T04:44:42;2.50;91.30
6627;DHT22;3349;49.830;8.748;2023-01-31T04:47:09;2.50;91.40
6627;DHT22;3349;49.830;8.748;2023-01-31T04:49:36;2.50;91.70
6627;DHT22;3349;49.830;8.748;2023-01-31T04:52:03;2.40;91.60
6627;DHT22;3349;49.830;8.748;2023-01-31T04:54:29;2.40;91.60
6627;DHT22;3349;49.830;8.748;2023-01-31T04:56:58;2.40;92.00
6627;DHT22;3349;49.830;8.748;2023-01-31T04:59:25;2.30;92.00
6627;DHT22;3349;49.830;8.748;2023-01-31T05:01:51;2.40;92.40
6627;DHT22;3349;49.830;8.748;2023-01-31T05:04:18;2.40;92.70
6627;DHT22;3349;49.830;8.748;2023-01-31T05:06:46;2.40;92.90
6627;DHT22;3349;49.830;8.748;2023-01-31T05:09:13;2.50;92.40
6627;DHT22;3349;49.830;8.748;2023-01-31T05:11:40;2.50;92.20
6627;DHT22;3349;49.830;8.748;2023-01-31T05:14:08;2.50;91.70
6627;DHT22;3349;49.830;8.748;2023-01-31T05:16:35;2.50;91.70
6627;DHT22;3349;49.830;8.748;2023-01-31T05:19:01;2.50;91.70
6627;DHT22;3349;49.830;8.748;2023-01-31T05:21:28;2.50;91.30
6627;DHT22;3349;49.830;8.748;2023-01-31T05:23:54;2.40;91.50
6627;DHT22;3349;49.830;8.748;2023-01-31T05:26:21;2.40;91.60
6627;DHT22;3349;49.830;8.748;2023-01-31T05:28:48;2.40;92.10
6627;DHT22;3349;49.830;8.748;2023-01-31T05:31:16;2.40;92.10
6627;DHT22;3349;49.830;8.748;2023-01-31T05:33:42;2.40;92.00
6627;DHT22;3349;49.830;8.748;2023-01-31T05:36:10;2.40;92.20
6627;DHT22;3349;49.830;8.748;2023-01-31T05:38:37;2.40;92.40
6627;DHT22;3349;49.830;8.748;2023-01-31T05:41:03;2.40;92.50
6627;DHT22;3349;49.830;8.748;2023-01-31T05:43:30;2.40;92.20
6627;DHT22;3349;49.830;8.748;2023-01-31T05:45:57;2.50;92.20
6627;DHT22;3349;49.830;8.748;2023-01-31T05:48:25;2.50;91.90
6627;DHT22;3349;49.830;8.748;2023-01-31T05:50:52;2.60;91.70
6627;DHT22;3349;49.830;8.748;2023-01-31T05:53:18;2.60;91.50
6627;DHT22;3349;49.830;8.748;2023-01-31T05:55:47;2.60;91.20
6627;DHT22;3349;49.830;8.748;2023-01-31T05:58:14;2.70;91.00
6627;DHT22;3349;49.830;8.748;2023-01-31T06:00:41;2.70;90.80
6627;DHT22;3349;49.830;8.748;2023-01-31T06:03:08;2.60;90.70
6627;DHT22;3349;49.830;8.748;2023-01-31T06:05:54;2.60;90.80
6627;DHT22;3349;49.830;8.748;2023-01-31T06:08:21;2.60;90.90
6627;DHT22;3349;49.830;8.748;2023-01-31T06:10:47;2.60;90.70
6627;DHT22;3349;49.830;8.748;2023-01-31T06:13:14;2.60;90.80
6627;DHT22;3349;49.830;8.748;2023-01-31T06:16:02;2.50;90.80
6627;DHT22;3349;49.830;8.748;2023-01-31T06:18:30;2.60;90.70
6627;DHT22;3349;49.830;8.748;2023-01-31T06:20:58;2.60;90.70
6627;DHT22;3349;49.830;8.748;2023-01-31T06:23:24;2.60;90.60
6627;DHT22;3349;49.830;8.748;2023-01-31T06:25:52;2.70;90.80
6627;DHT22;3349;49.830;8.748;2023-01-31T06:28:20;2.70;90.30
6627;DHT22;3349;49.830;8.748;2023-01-31T06:30:47;2.80;90.10
6627;DHT22;3349;49.830;8.748;2023-01-31T06:33:14;2.90;90.00
6627;DHT22;3349;49.830;8.748;2023-01-31T06:35:41;2.90;89.90
6627;DHT22;3349;49.830;8.748;2023-01-31T06:38:09;3.00;88.00
6627;DHT22;3349;49.830;8.748;2023-01-31T06:40:37;3.00;87.40
6627;DHT22;3349;49.830;8.748;2023-01-31T06:43:04;3.10;86.40
6627;DHT22;3349;49.830;8.748;2023-01-31T06:45:31;3.10;86.50
6627;DHT22;3349;49.830;8.748;2023-01-31T06:47:57;3.00;85.90
6627;DHT22;3349;49.830;8.748;2023-01-31T06:50:25;3.10;85.30
6627;DHT22;3349;49.830;8.748;2023-01-31T06:52:52;3.10;86.00
6627;DHT22;3349;49.830;8.748;2023-01-31T06:55:20;3.10;86.00
6627;DHT22;3349;49.830;8.748;2023-01-31T06:57:47;3.10;86.00
6627;DHT22;3349;49.830;8.748;2023-01-31T07:00:15;3.20;86.10
6627;DHT22;3349;49.830;8.748;2023-01-31T07:02:43;3.20;86.10
6627;DHT22;3349;49.830;8.748;2023-01-31T07:05:09;3.10;86.00
6627;DHT22;3349;49.830;8.748;2023-01-31T07:07:36;3.20;86.10
6627;DHT22;3349;49.830;8.748;2023-01-31T07:10:03;3.30;86.20
6627;DHT22;3349;49.830;8.748;2023-01-31T07:12:31;3.30;85.60
6627;DHT22;3349;49.830;8.748;2023-01-31T07:14:58;3.30;86.10
6627;DHT22;3349;49.830;8.748;2023-01-31T07:17:25;3.30;86.20
6627;DHT22;3349;49.830;8.748;2023-01-31T07:19:51;3.30;86.10
6627;DHT22;3349;49.830;8.748;2023-01-31T07:22:18;3.30;85.50
6627;DHT22;3349;49.830;8.748;2023-01-31T07:24:45;3.30;85.90
6627;DHT22;3349;49.830;8.748;2023-01-31T07:27:14;3.30;85.60
6627;DHT22;3349;49.830;8.748;2023-01-31T07:29:42;3.30;86.00
6627;DHT22;3349;49.830;8.748;2023-01-31T07:32:09;3.40;84.70
6627;DHT22;3349;49.830;8.748;2023-01-31T07:34:36;3.40;84.70
6627;DHT22;3349;49.830;8.748;2023-01-31T07:37:03;3.40;84.30
6627;DHT22;3349;49.830;8.748;2023-01-31T07:39:29;3.50;84.00
6627;DHT22;3349;49.830;8.748;2023-01-31T07:41:56;3.50;82.20
6627;DHT22;3349;49.830;8.748;2023-01-31T07:44:23;3.50;82.10
6627;DHT22;3349;49.830;8.748;2023-01-31T07:46:51;3.50;81.50
6627;DHT22;3349;49.830;8.748;2023-01-31T07:49:19;3.50;81.10
6627;DHT22;3349;49.830;8.748;2023-01-31T07:51:46;3.50;81.90
6627;DHT22;3349;49.830;8.748;2023-01-31T07:54:13;3.40;82.00
6627;DHT22;3349;49.830;8.748;2023-01-31T07:56:40;3.30;84.10
6627;DHT22;3349;49.830;8.748;2023-01-31T07:59:07;3.20;84.60
6627;DHT22;3349;49.830;8.748;2023-01-31T08:01:33;3.20;86.10
6627;DHT22;3349;49.830;8.748;2023-01-31T08:04:19;3.10;86.40
6627;DHT22;3349;49.830;8.748;2023-01-31T08:06:46;3.00;88.40
6627;DHT22;3349;49.830;8.748;2023-01-31T08:09:13;3.00;90.00
6627;DHT22;3349;49.830;8.748;2023-01-31T08:11:39;3.10;90.00
6627;DHT22;3349;49.830;8.748;2023-01-31T08:14:06;3.10;89.60
6627;DHT22;3349;49.830;8.748;2023-01-31T08:16:34;3.20;88.30
6627;DHT22;3349;49.830;8.748;2023-01-31T08:19:02;3.10;88.50
6627;DHT22;3349;49.830;8.748;2023-01-31T08:21:30;3.00;89.40
6627;DHT22;3349;49.830;8.748;2023-01-31T08:23:57;3.00;90.00
6627;DHT22;3349;49.830;8.748;2023-01-31T08:26:23;2.90;90.20
6627;DHT22;3349;49.830;8.748;2023-01-31T08:28:51;2.90;90.40
6627;DHT22;3349;49.830;8.748;2023-01-31T08:31:20;2.90;90.70
6627;DHT22;3349;49.830;8.748;2023-01-31T08:33:47;2.90;90.80
6627;DHT22;3349;49.830;8.748;2023-01-31T08:36:18;2.80;90.60
6627;DHT22;3349;49.830;8.748;2023-01-31T08:38:46;2.80;91.00
6627;DHT22;3349;49.830;8.748;2023-01-31T08:41:14;2.70;90.90
6627;DHT22;3349;49.830;8.748;2023-01-31T08:43:42;2.80;91.10
6627;DHT22;3349;49.830;8.748;2023-01-31T08:46:09;2.80;91.20
6627;DHT22;3349;49.830;8.748;2023-01-31T08:48:37;2.80;90.90
6627;DHT22;3349;49.830;8.748;2023-01-31T08:51:05;2.90;91.00
6627;DHT22;3349;49.830;8.748;2023-01-31T08:53:33;2.90;91.00
6627;DHT22;3349;49.830;8.748;2023-01-31T08:56:02;2.90;91.00
6627;DHT22;3349;49.830;8.748;2023-01-31T08:58:30;3.00;91.00
6627;DHT22;3349;49.830;8.748;2023-01-31T09:01:00;3.10;90.60
6627;DHT22;3349;49.830;8.748;2023-01-31T09:03:27;3.00;90.30
6627;DHT22;3349;49.830;8.748;2023-01-31T09:05:57;3.00;90.10
6627;DHT22;3349;49.830;8.748;2023-01-31T09:08:24;3.10;90.10
6627;DHT22;3349;49.830;8.748;2023-01-31T09:10:52;3.00;90.00
6627;DHT22;3349;49.830;8.748;2023-01-31T09:13:20;3.00;90.20
6627;DHT22;3349;49.830;8.748;2023-01-31T09:15:56;3.00;90.30
6627;DHT22;3349;49.830;8.748;2023-01-31T09:18:23;3.10;90.10
6627;DHT22;3349;49.830;8.748;2023-01-31T09:20:49;3.30;89.70
6627;DHT22;3349;49.830;8.748;2023-01-31T09:23:16;3.40;88.00
6627;DHT22;3349;49.830;8.748;2023-01-31T09:25:50;3.40;88.00
6627;DHT22;3349;49.830;8.748;2023-01-31T09:28:17;3.50;86.30
6627;DHT22;3349;49.830;8.748;2023-01-31T09:30:45;3.60;85.80
6627;DHT22;3349;49.830;8.748;2023-01-31T09:33:11;3.80;85.20
6627;DHT22;3349;49.830;8.748;2023-01-31T09:35:38;3.90;85.40
6627;DHT22;3349;49.830;8.748;2023-01-31T09:38:05;4.00;84.80
6627;DHT22;3349;49.830;8.748;2023-01-31T09:40:34;4.10;83.80
6627;DHT22;3349;49.830;8.748;2023-01-31T09:43:02;4.20;82.40
6627;DHT22;3349;49.830;8.748;2023-01-31T09:45:32;4.00;81.80
6627;DHT22;3349;49.830;8.748;2023-01-31T09:48:01;4.00;83.00
6627;DHT22;3349;49.830;8.748;2023-01-31T09:50:32;3.90;85.20
6627;DHT22;3349;49.830;8.748;2023-01-31T09:53:01;3.80;86.30
6627;DHT22;3349;49.830;8.748;2023-01-31T09:55:34;3.70;86.50
6627;DHT22;3349;49.830;8.748;2023-01-31T09:58:06;3.60;87.90
6627;DHT22;3349;49.830;8.748;2023-01-31T10:00:44;3.50;89.80
6627;DHT22;3349;49.830;8.748;2023-01-31T10:03:31;3.60;90.20
6627;DHT22;3349;49.830;8.748;2023-01-31T10:06:07;3.50;90.30
6627;DHT22;3349;49.830;8.748;2023-01-31T10:08:43;3.50;90.70
6627;DHT22;3349;49.830;8.748;2023-01-31T10:11:14;3.60;90.80
6627;DHT22;3349;49.830;8.748;2023-01-31T10:13:46;3.60;90.60
6627;DHT22;3349;49.830;8.748;2023-01-31T10:16:21;3.60;91.10
6627;DHT22;3349;49.830;8.748;2023-01-31T10:18:53;3.50;91.60
6627;DHT22;3349;49.830;8.748;2023-01-31T10:21:27;3.50;92.10
6627;DHT22;3349;49.830;8.748;2023-01-31T10:23:59;3.50;92.30
6627;DHT22;3349;49.830;8.748;2023-01-31T10:26:29;3.50;92.30
6627;DHT22;3349;49.830;8.748;2023-01-31T10:28:59;3.50;92.80
6627;DHT22;3349;49.830;8.748;2023-01-31T10:31:31;3.60;92.80
6627;DHT22;3349;49.830;8.748;2023-01-31T10:34:04;3.60;92.50
6627;DHT22;3349;49.830;8.748;2023-01-31T10:36:33;3.70;92.20
6627;DHT22;3349;49.830;8.748;2023-01-31T10:39:04;3.80;92.00
6627;DHT22;3349;49.830;8.748;2023-01-31T10:41:42;3.80;92.10
6627;DHT22;3349;49.830;8.748;2023-01-31T10:44:18;3.90;91.30
6627;DHT22;3349;49.830;8.748;2023-01-31T10:46:47;3.80;91.40
6627;DHT22;3349;49.830;8.748;2023-01-31T10:49:15;3.80;91.50
6627;DHT22;3349;49.830;8.748;2023-01-31T10:51:58;3.80;91.70
6627;DHT22;3349;49.830;8.748;2023-01-31T10:54:48;3.80;92.00
6627;DHT22;3349;49.830;8.748;2023-01-31T10:57:19;3.70;92.50
6627;DHT22;3349;49.830;8.748;2023-01-31T10:59:47;3.70;92.80
6627;DHT22;3349;49.830;8.748;2023-01-31T11:02:18;3.80;93.00
6627;DHT22;3349;49.830;8.748;2023-01-31T11:04:49;3.80;92.70
6627;DHT22;3349;49.830;8.748;2023-01-31T11:07:17;3.90;92.60
6627;DHT22;3349;49.830;8.748;2023-01-31T11:09:48;4.00;92.60
6627;DHT22;3349;49.830;8.748;2023-01-31T11:12:16;4.10;92.20
6627;DHT22;3349;49.830;8.748;2023-01-31T11:14:43;4.20;92.10
6627;DHT22;3349;49.830;8.748;2023-01-31T11:17:15;4.50;90.60
6627;DHT22;3349;49.830;8.748;2023-01-31T11:19:45;5.10;90.30
6627;DHT22;3349;49.830;8.748;2023-01-31T11:22:21;6.50;80.60
6627;DHT22;3349;49.830;8.748;2023-01-31T11:24:49;7.50;69.10
6627;DHT22;3349;49.830;8.748;2023-01-31T11:27:24;7.50;65.40
6627;DHT22;3349;49.830;8.748;2023-01-31T11:29:52;7.40;65.30
6627;DHT22;3349;49.830;8.748;2023-01-31T11:32:24;7.10;65.90
6627;DHT22;3349;49.830;8.748;2023-01-31T11:34:56;6.50;68.00
6627;DHT22;3349;49.830;8.748;2023-01-31T11:37:26;6.00;71.40
6627;DHT22;3349;49.830;8.748;2023-01-31T11:39:55;5.70;74.50
6627;DHT22;3349;49.830;8.748;2023-01-31T11:42:22;5.50;76.00
6627;DHT22;3349;49.830;8.748;2023-01-31T11:44:57;5.40;77.50
6627;DHT22;3349;49.830;8.748;2023-01-31T11:47:30;5.20;78.60
6627;DHT22;3349;49.830;8.748;2023-01-31T11:49:59;5.10;79.30
6627;DHT22;3349;49.830;8.748;2023-01-31T11:52:30;5.10;80.10
6627;DHT22;3349;49.830;8.748;2023-01-31T11:54:59;5.10;81.00
6627;DHT22;3349;49.830;8.748;2023-01-31T11:57:30;5.00;81.90
6627;DHT22;3349;49.830;8.748;2023-01-31T11:59:59;5.00;82.50
6627;DHT22;3349;49.830;8.748;2023-01-31T12:02:30;5.10;82.50
6627;DHT22;3349;49.830;8.748;2023-01-31T12:05:00;5.10;81.90
6627;DHT22;3349;49.830;8.748;2023-01-31T12:07:39;5.00;82.30
6627;DHT22;3349;49.830;8.748;2023-01-31T12:10:27;5.00;82.40
6627;DHT22;3349;49.830;8.748;2023-01-31T12:12:57;5.00;83.10
6627;DHT22;3349;49.830;8.748;2023-01-31T12:15:25;4.90;83.10
6627;DHT22;3349;49.830;8.748;2023-01-31T12:17:53;4.90;83.80
6627;DHT22;3349;49.830;8.748;2023-01-31T12:20:27;4.80;83.80
6627;DHT22;3349;49.830;8.748;2023-01-31T12:23:07;4.80;84.20
6627;DHT22;3349;49.830;8.748;2023-01-31T12:25:45;4.80;84.30
6627;DHT22;3349;49.830;8.748;2023-01-31T12:28:23;4.90;85.20
6627;DHT22;3349;49.830;8.748;2023-01-31T12:31:06;5.00;84.80
6627;DHT22;3349;49.830;8.748;2023-01-31T12:33:43;5.00;83.90
6627;DHT22;3349;49.830;8.748;2023-01-31T12:36:26;5.00;83.30
6627;DHT22;3349;49.830;8.748;2023-01-31T12:39:17;5.00;83.40
6627;DHT22;3349;49.830;8.748;2023-01-31T12:41:59;5.10;83.60
6627;DHT22;3349;49.830;8.748;2023-01-31T12:44:39;5.10;83.50
6627;DHT22;3349;49.830;8.748;2023-01-31T12:50:25;5.00;82.80
6627;DHT22;3349;49.830;8.748;2023-01-31T12:55:56;4.90;83.70
6627;DHT22;3349;49.830;8.748;2023-01-31T12:58:41;4.90;83.10
6627;DHT22;3349;49.830;8.748;2023-01-31T13:01:13;4.90;83.30
6627;DHT22;3349;49.830;8.748;2023-01-31T13:03:55;4.90;83.10
6627;DHT22;3349;49.830;8.748;2023-01-31T13:06:27;4.90;82.70
6627;DHT22;3349;49.830;8.748;2023-01-31T13:08:59;4.90;82.70
6627;DHT22;3349;49.830;8.748;2023-01-31T13:11:33;4.80;83.30
6627;DHT22;3349;49.830;8.748;2023-01-31T13:14:02;4.80;83.20
6627;DHT22;3349;49.830;8.748;2023-01-31T13:16:33;4.80;83.30
6627;DHT22;3349;49.830;8.748;2023-01-31T13:19:03;4.80;83.00
6627;DHT22;3349;49.830;8.748;2023-01-31T13:21:33;4.80;82.90
6627;DHT22;3349;49.830;8.748;2023-01-31T13:24:04;4.80;83.10
6627;DHT22;3349;49.830;8.748;2023-01-31T13:26:36;4.80;82.90
6627;DHT22;3349;49.830;8.748;2023-01-31T13:29:06;4.90;83.10
6627;DHT22;3349;49.830;8.748;2023-01-31T13:31:41;4.90;82.50
6627;DHT22;3349;49.830;8.748;2023-01-31T13:34:14;4.90;82.20
6627;DHT22;3349;49.830;8.748;2023-01-31T13:36:45;4.90;82.50
6627;DHT22;3349;49.830;8.748;2023-01-31T13:39:18;5.00;82.50
6627;DHT22;3349;49.830;8.748;2023-01-31T13:41:48;5.10;81.70
6627;DHT22;3349;49.830;8.748;2023-01-31T13:44:15;5.00;81.10
6627;DHT22;3349;49.830;8.748;2023-01-31T13:46:46;5.00;81.70
6627;DHT22;3349;49.830;8.748;2023-01-31T13:49:18;5.00;81.90
6627;DHT22;3349;49.830;8.748;2023-01-31T13:51:50;5.00;83.80
6627;DHT22;3349;49.830;8.748;2023-01-31T13:54:22;4.90;85.10
6627;DHT22;3349;49.830;8.748;2023-01-31T13:56:54;4.90;85.30
6627;DHT22;3349;49.830;8.748;2023-01-31T13:59:24;4.90;85.50
6627;DHT22;3349;49.830;8.748;2023-01-31T14:01:53;4.90;85.50
6627;DHT22;3349;49.830;8.748;2023-01-31T14:04:32;4.90;85.30
6627;DHT22;3349;49.830;8.748;2023-01-31T14:07:21;4.90;85.00
6627;DHT22;3349;49.830;8.748;2023-01-31T14:13:39;4.90;86.60
6627;DHT22;3349;49.830;8.748;2023-01-31T14:16:35;4.90;89.30
6627;DHT22;3349;49.830;8.748;2023-01-31T14:19:04;4.80;91.30
6627;DHT22;3349;49.830;8.748;2023-01-31T14:21:52;4.70;92.20
6627;DHT22;3349;49.830;8.748;2023-01-31T14:27:32;4.60;93.50
6627;DHT22;3349;49.830;8.748;2023-01-31T14:30:19;4.60;94.40
6627;DHT22;3349;49.830;8.748;2023-01-31T14:32:55;4.60;93.90
6627;DHT22;3349;49.830;8.748;2023-01-31T14:35:34;4.50;94.40
6627;DHT22;3349;49.830;8.748;2023-01-31T14:38:12;4.50;95.30
6627;DHT22;3349;49.830;8.748;2023-01-31T14:40:45;4.50;96.20
6627;DHT22;3349;49.830;8.748;2023-01-31T14:43:28;4.50;97.70
6627;DHT22;3349;49.830;8.748;2023-01-31T14:46:31;4.40;99.00
6627;DHT22;3349;49.830;8.748;2023-01-31T14:52:13;4.30;99.90
6627;DHT22;3349;49.830;8.748;2023-01-31T14:54:58;4.30;99.90
6627;DHT22;3349;49.830;8.748;2023-01-31T14:57:30;4.20;99.90
6627;DHT22;3349;49.830;8.748;2023-01-31T15:00:00;4.20;99.90
6627;DHT22;3349;49.830;8.748;2023-01-31T15:02:47;4.20;99.90
6627;DHT22;3349;49.830;8.748;2023-01-31T15:05:18;4.20;99.90
6627;DHT22;3349;49.830;8.748;2023-01-31T15:07:59;4.10;99.90
6627;DHT22;3349;49.830;8.748;2023-01-31T15:10:51;4.20;99.90
6627;DHT22;3349;49.830;8.748;2023-01-31T15:13:43;4.10;99.90
6627;DHT22;3349;49.830;8.748;2023-01-31T15:16:25;4.10;99.90
6627;DHT22;3349;49.830;8.748;2023-01-31T15:18:59;4.10;99.90
6627;DHT22;3349;49.830;8.748;2023-01-31T15:21:28;4.00;99.90
6627;DHT22;3349;49.830;8.748;2023-01-31T15:23:57;4.00;99.90
6627;DHT22;3349;49.830;8.748;2023-01-31T15:26:27;4.00;99.90
6627;DHT22;3349;49.830;8.748;2023-01-31T15:28:55;4.00;99.90
6627;DHT22;3349;49.830;8.748;2023-01-31T15:31:27;4.00;99.90
6627;DHT22;3349;49.830;8.748;2023-01-31T15:34:00;4.00;99.90
6627;DHT22;3349;49.830;8.748;2023-01-31T15:36:31;4.00;99.90
6627;DHT22;3349;49.830;8.748;2023-01-31T15:39:02;4.00;99.90
6627;DHT22;3349;49.830;8.748;2023-01-31T15:41:36;4.00;99.90
6627;DHT22;3349;49.830;8.748;2023-01-31T15:44:11;4.10;99.90
6627;DHT22;3349;49.830;8.748;2023-01-31T15:46:42;4.10;99.90
6627;DHT22;3349;49.830;8.748;2023-01-31T15:49:23;4.10;99.90
6627;DHT22;3349;49.830;8.748;2023-01-31T15:52:20;4.10;99.90
6627;DHT22;3349;49.830;8.748;2023-01-31T15:54:52;4.10;99.90
6627;DHT22;3349;49.830;8.748;2023-01-31T15:57:22;4.20;99.90
6627;DHT22;3349;49.830;8.748;2023-01-31T15:59:50;4.20;99.90
6627;DHT22;3349;49.830;8.748;2023-01-31T16:02:21;4.20;99.90
6627;DHT22;3349;49.830;8.748;2023-01-31T16:04:52;4.20;99.90
6627;DHT22;3349;49.830;8.748;2023-01-31T16:07:20;4.20;99.90
6627;DHT22;3349;49.830;8.748;2023-01-31T16:09:54;4.20;99.90
6627;DHT22;3349;49.830;8.748;2023-01-31T16:12:21;4.20;99.90
6627;DHT22;3349;49.830;8.748;2023-01-31T16:14:49;4.20;99.90
6627;DHT22;3349;49.830;8.748;2023-01-31T16:17:19;4.30;99.90
6627;DHT22;3349;49.830;8.748;2023-01-31T16:19:48;4.30;99.90
6627;DHT22;3349;49.830;8.748;2023-01-31T16:22:24;4.30;99.90
6627;DHT22;3349;49.830;8.748;2023-01-31T16:24:52;4.30;99.90
6627;DHT22;3349;49.830;8.748;2023-01-31T16:27:19;4.30;99.90
6627;DHT22;3349;49.830;8.748;2023-01-31T16:29:49;4.40;99.90
6627;DHT22;3349;49.830;8.748;2023-01-31T16:32:20;4.40;99.90
6627;DHT22;3349;49.830;8.748;2023-01-31T16:34:52;4.40;99.90
6627;DHT22;3349;49.830;8.748;2023-01-31T16:37:29;4.40;99.90
6627;DHT22;3349;49.830;8.748;2023-01-31T16:40:00;4.40;99.90
6627;DHT22;3349;49.830;8.748;2023-01-31T16:42:27;4.40;99.90
6627;DHT22;3349;49.830;8.748;2023-01-31T16:44:55;4.40;99.90
6627;DHT22;3349;49.830;8.748;2023-01-31T16:47:31;4.50;99.90
6627;DHT22;3349;49.830;8.748;2023-01-31T16:50:23;4.50;99.90
6627;DHT22;3349;49.830;8.748;2023-01-31T16:53:11;4.50;99.90
6627;DHT22;3349;49.830;8.748;2023-01-31T16:55:39;4.50;99.90
6627;DHT22;3349;49.830;8.748;2023-01-31T16:58:07;4.50;99.90
6627;DHT22;3349;49.830;8.748;2023-01-31T17:00:34;4.50;99.90